Accueil
METAR-TAF:

METAR-TAF

Aéroports :

Base aérienne 120 Cazaux

Cazaux, France

latitude: 44-32N, longitude: 001-08W, altitude: 25 m

Observation

Le bulletin a été fait il y a 11 minutes, à 14:00 UTC
Vent 10 kt de nord/nord-ouest
Température 25°C
Humidité 61%
Pression 1022 hPa
Visibilité 10 km ou plus
pas de nuages en-dessous de 1500 mètres et pas de cumulonimbus.

METAR: LFBC 191400Z AUTO 33010KT CAVOK 25/17 Q1022 BECMG 04005KT

Heure: 16:11 (14:11 UTC)

Prévision

Le bulletin a été fait il y a 6 heures et 11 minutes, à 08:00 UTC
Prévision valable du 19 à 09 UTC au 20 à 09 UTC
Vent 5 kt de nord-est
Visibilité 10 km ou plus
Nuages fragmentés à une hauteur de 2500 ft
Probabilité 40% :
Temporairement
du 20 à 00 UTC au 20 à 06 UTC
Visibilité: 0800 m
bancs de brouillard

TAF: LFBC 190800Z 1909/2009 04005KT 9999 BKN025 PROB40 TEMPO 2000/2006 0800 BCFG

Observations et prévisions météorologiques de plus de 4000 aéroports (messages METAR et TAF).

Les stations disponibles sont représentées par des disques jaunes et rouges sur la carte.

Passer la souris dessus pour voir le nom de la station.

Cliquer dessus pour voir les observations et prévisions météorologiques.

Pour changer de carte: cliquez sur les boutons verts avec une croix noire pour zoomer, sur le bouton vert avec un tiret pour effectuer un zoom arrière, ou sur les flèches vertes pour les cartes adjacentes.


METAR-TAF: